Time,TemperatureF,DewpointF,PressureIn,WindDirection,WindDirectionDegrees,WindSpeedMPH,WindSpeedGustMPH,Humidity,HourlyPrecipIn,Conditions,Clouds,dailyrainin,SoftwareType,DateUTC
2013-07-31 00:00:00,57.9,50.7,30.08,N/A,-737280,0.0,0.0,77,0.00,,,0.00,Wunderground v.1.12,2013-07-31 06:00:00,
2013-07-31 00:05:00,58.3,50.8,30.10,N/A,-32768,0.0,0.0,76,0.00,,,0.00,Wunderground v.1.12,2013-07-31 06:05:00,
2013-07-31 00:10:00,58.0,50.5,30.10,N/A,-32768,0.0,0.0,76,0.00,,,0.00,Wunderground v.1.12,2013-07-31 06:10:00,
2013-07-31 00:15:00,57.8,50.3,30.10,N/A,-32768,0.0,0.0,76,0.00,,,0.00,Wunderground v.1.12,2013-07-31 06:15:00,
2013-07-31 00:20:00,57.7,50.5,30.10,N/A,-32768,0.0,0.0,77,0.00,,,0.00,Wunderground v.1.12,2013-07-31 06:20:00,
2013-07-31 00:25:00,57.5,50.3,30.10,N/A,-32768,0.0,0.0,77,0.00,,,0.00,Wunderground v.1.12,2013-07-31 06:25:00,
2013-07-31 00:30:00,57.3,50.1,30.10,N/A,-32768,0.0,0.0,77,0.00,,,0.00,Wunderground v.1.12,2013-07-31 06:30:00,
2013-07-31 00:35:00,57.9,50.7,30.08,N/A,-737280,0.0,0.0,77,0.00,,,0.00,Wunderground v.1.12,2013-07-31 06:35:00,
2013-07-31 00:40:00,56.9,49.8,30.10,N/A,-32768,0.0,0.0,77,0.00,,,0.00,Wunderground v.1.12,2013-07-31 06:40:00,
2013-07-31 00:45:00,56.7,50.3,30.10,N/A,-32768,0.0,0.0,79,0.00,,,0.00,Wunderground v.1.12,2013-07-31 06:45:00,
2013-07-31 00:50:00,56.2,49.8,30.11,N/A,-32768,0.0,0.0,79,0.00,,,0.00,Wunderground v.1.12,2013-07-31 06:50:00,
2013-07-31 00:55:00,56.0,49.6,30.11,N/A,-32768,0.0,0.0,79,0.00,,,0.00,Wunderground v.1.12,2013-07-31 06:55:00,
2013-07-31 01:00:00,55.9,49.5,30.11,N/A,-32768,0.0,0.0,79,0.00,,,0.00,Wunderground v.1.12,2013-07-31 07:00:00,
2013-07-31 01:05:00,55.7,49.3,30.11,N/A,-32768,0.0,0.0,79,0.00,,,0.00,Wunderground v.1.12,2013-07-31 07:05:00,
2013-07-31 01:10:00,55.5,49.1,30.11,N/A,-32768,0.0,0.0,79,0.00,,,0.00,Wunderground v.1.12,2013-07-31 07:10:00,
2013-07-31 01:15:00,55.4,49.3,30.11,N/A,-32768,0.0,0.0,80,0.00,,,0.00,Wunderground v.1.12,2013-07-31 07:15:00,
2013-07-31 01:20:00,55.2,49.1,30.11,N/A,-32768,0.0,0.0,80,0.00,,,0.00,Wunderground v.1.12,2013-07-31 07:20:00,
2013-07-31 01:25:00,55.1,49.0,30.11,N/A,-32768,0.0,0.0,80,0.00,,,0.00,Wunderground v.1.12,2013-07-31 07:25:00,
2013-07-31 01:30:00,55.0,49.3,30.12,N/A,-32768,0.0,0.0,81,0.00,,,0.00,Wunderground v.1.12,2013-07-31 07:30:00,
2013-07-31 01:35:00,55.4,49.7,30.09,N/A,-737280,0.0,0.0,81,0.00,,,0.00,Wunderground v.1.12,2013-07-31 07:35:00,
2013-07-31 01:40:00,54.6,48.9,30.12,N/A,-32768,0.0,0.0,81,0.00,,,0.00,Wunderground v.1.12,2013-07-31 07:40:00,
2013-07-31 01:45:00,54.6,48.9,30.12,N/A,-32768,0.0,0.0,81,0.00,,,0.00,Wunderground v.1.12,2013-07-31 07:45:00,
2013-07-31 01:50:00,54.3,48.6,30.12,N/A,-32768,0.0,0.0,81,0.00,,,0.00,Wunderground v.1.12,2013-07-31 07:50:00,
2013-07-31 01:55:00,54.2,48.5,30.12,N/A,-32768,0.0,0.0,81,0.00,,,0.00,Wunderground v.1.12,2013-07-31 07:55:00,
2013-07-31 02:00:00,54.0,48.3,30.12,N/A,-32768,0.0,0.0,81,0.00,,,0.00,Wunderground v.1.12,2013-07-31 08:00:00,
2013-07-31 02:05:00,53.9,48.5,30.12,N/A,-32768,0.0,0.0,82,0.00,,,0.00,Wunderground v.1.12,2013-07-31 08:05:00,
2013-07-31 02:10:00,53.6,48.6,30.13,N/A,-32768,0.0,0.0,83,0.00,,,0.00,Wunderground v.1.12,2013-07-31 08:10:00,
2013-07-31 02:15:00,53.4,48.4,30.13,N/A,-32768,0.0,0.0,83,0.00,,,0.00,Wunderground v.1.12,2013-07-31 08:15:00,
2013-07-31 02:20:00,53.1,48.4,30.13,N/A,-32768,0.0,0.0,84,0.00,,,0.00,Wunderground v.1.12,2013-07-31 08:20:00,
2013-07-31 02:25:00,53.1,48.1,30.13,N/A,-32768,0.0,0.0,83,0.00,,,0.00,Wunderground v.1.12,2013-07-31 08:25:00,
2013-07-31 02:30:00,53.5,48.5,30.10,N/A,-737280,0.0,0.0,83,0.00,,,0.00,Wunderground v.1.12,2013-07-31 08:30:00,
2013-07-31 02:35:00,52.9,47.9,30.12,N/A,-32768,0.0,0.0,83,0.00,,,0.00,Wunderground v.1.12,2013-07-31 08:35:00,
2013-07-31 02:40:00,53.5,48.5,30.10,N/A,-737280,0.0,0.0,83,0.00,,,0.00,Wunderground v.1.12,2013-07-31 08:40:00,
2013-07-31 02:45:00,52.7,47.7,30.13,N/A,-32768,0.0,0.0,83,0.00,,,0.00,Wunderground v.1.12,2013-07-31 08:45:00,
2013-07-31 02:50:00,52.6,47.9,30.13,N/A,-32768,0.0,0.0,84,0.00,,,0.00,Wunderground v.1.12,2013-07-31 08:50:00,
2013-07-31 02:55:00,52.5,47.8,30.13,N/A,-32768,0.0,0.0,84,0.00,,,0.00,Wunderground v.1.12,2013-07-31 08:55:00,
2013-07-31 03:00:00,52.4,47.7,30.13,N/A,-32768,0.0,0.0,84,0.00,,,0.00,Wunderground v.1.12,2013-07-31 09:00:00,
2013-07-31 03:05:00,52.2,47.2,30.13,N/A,-32768,0.0,0.0,83,0.00,,,0.00,Wunderground v.1.12,2013-07-31 09:05:00,
2013-07-31 03:15:00,51.9,47.5,30.13,N/A,-32768,0.0,0.0,85,0.00,,,0.00,Wunderground v.1.12,2013-07-31 09:15:00,
2013-07-31 03:20:00,51.8,47.1,30.13,N/A,-32768,0.0,0.0,84,0.00,,,0.00,Wunderground v.1.12,2013-07-31 09:20:00,
2013-07-31 03:25:00,51.7,47.3,30.13,N/A,-32768,0.0,0.0,85,0.00,,,0.00,Wunderground v.1.12,2013-07-31 09:25:00,
2013-07-31 03:30:00,51.6,47.2,30.13,N/A,-32768,0.0,0.0,85,0.00,,,0.00,Wunderground v.1.12,2013-07-31 09:30:00,
2013-07-31 03:35:00,51.3,46.9,30.13,N/A,-32768,0.0,0.0,85,0.00,,,0.00,Wunderground v.1.12,2013-07-31 09:35:00,
2013-07-31 03:40:00,51.3,47.3,30.14,N/A,-32768,0.0,0.0,86,0.00,,,0.00,Wunderground v.1.12,2013-07-31 09:40:00,
2013-07-31 03:45:00,51.0,47.3,30.11,N/A,-737280,0.0,0.0,87,0.00,,,0.00,Wunderground v.1.12,2013-07-31 09:45:00,
2013-07-31 03:50:00,50.9,46.9,30.14,N/A,-32768,0.0,0.0,86,0.00,,,0.00,Wunderground v.1.12,2013-07-31 09:50:00,
2013-07-31 03:55:00,50.7,46.7,30.14,N/A,-32768,0.0,0.0,86,0.00,,,0.00,Wunderground v.1.12,2013-07-31 09:55:00,
2013-07-31 04:00:00,50.5,46.8,30.14,N/A,-32768,0.0,0.0,87,0.00,,,0.00,Wunderground v.1.12,2013-07-31 10:00:00,
2013-07-31 04:05:00,50.3,46.3,30.14,N/A,-32768,0.0,0.0,86,0.00,,,0.00,Wunderground v.1.12,2013-07-31 10:05:00,
2013-07-31 04:10:00,50.3,46.6,30.14,N/A,-32768,0.0,0.0,87,0.00,,,0.00,Wunderground v.1.12,2013-07-31 10:10:00,
2013-07-31 04:15:00,50.3,46.9,30.12,N/A,-737280,0.0,0.0,88,0.00,,,0.00,Wunderground v.1.12,2013-07-31 10:15:00,
2013-07-31 04:20:00,50.3,46.6,30.14,N/A,-32768,0.0,0.0,87,0.00,,,0.00,Wunderground v.1.12,2013-07-31 10:20:00,
2013-07-31 04:25:00,50.2,46.8,30.14,N/A,-32768,0.0,0.0,88,0.00,,,0.00,Wunderground v.1.12,2013-07-31 10:25:00,
2013-07-31 04:30:00,50.1,46.7,30.15,N/A,-32768,0.0,0.0,88,0.00,,,0.00,Wunderground v.1.12,2013-07-31 10:30:00,
2013-07-31 04:35:00,50.0,46.6,30.15,N/A,-32768,0.0,0.0,88,0.00,,,0.00,Wunderground v.1.12,2013-07-31 10:35:00,
2013-07-31 04:40:00,49.8,46.4,30.15,N/A,-32768,0.0,0.0,88,0.00,,,0.00,Wunderground v.1.12,2013-07-31 10:40:00,
2013-07-31 04:45:00,49.7,46.0,30.12,N/A,-737280,0.0,0.0,87,0.00,,,0.00,Wunderground v.1.12,2013-07-31 10:45:00,
2013-07-31 04:50:00,49.5,46.1,30.15,N/A,-32768,0.0,0.0,88,0.00,,,0.00,Wunderground v.1.12,2013-07-31 10:50:00,
2013-07-31 04:55:00,49.7,46.0,30.12,N/A,-737280,0.0,0.0,87,0.00,,,0.00,Wunderground v.1.12,2013-07-31 10:55:00,
2013-07-31 05:00:00,49.4,46.0,30.15,N/A,-32768,0.0,0.0,88,0.00,,,0.00,Wunderground v.1.12,2013-07-31 11:00:00,
2013-07-31 05:05:00,49.1,45.4,30.15,N/A,-32768,0.0,0.0,87,0.00,,,0.00,Wunderground v.1.12,2013-07-31 11:05:00,
2013-07-31 05:10:00,48.9,45.5,30.15,N/A,-32768,0.0,0.0,88,0.00,,,0.00,Wunderground v.1.12,2013-07-31 11:10:00,
2013-07-31 05:15:00,48.9,45.8,30.15,N/A,-32768,0.0,0.0,89,0.00,,,0.00,Wunderground v.1.12,2013-07-31 11:15:00,
2013-07-31 05:20:00,48.8,45.7,30.15,N/A,-32768,0.0,0.0,89,0.00,,,0.00,Wunderground v.1.12,2013-07-31 11:20:00,
2013-07-31 05:25:00,48.7,45.3,30.15,N/A,-32768,0.0,0.0,88,0.00,,,0.00,Wunderground v.1.12,2013-07-31 11:25:00,
2013-07-31 05:30:00,48.7,45.3,30.15,N/A,-32768,0.0,0.0,88,0.00,,,0.00,Wunderground v.1.12,2013-07-31 11:30:00,
2013-07-31 05:35:00,48.6,45.2,30.16,N/A,-32768,0.0,0.0,88,0.00,,,0.00,Wunderground v.1.12,2013-07-31 11:35:00,
2013-07-31 05:45:00,48.6,45.5,30.15,N/A,-32768,0.0,0.0,89,0.00,,,0.00,Wunderground v.1.12,2013-07-31 11:45:00,
2013-07-31 05:50:00,48.4,45.6,30.13,N/A,-737280,0.0,0.0,90,0.00,,,0.00,Wunderground v.1.12,2013-07-31 11:50:00,
2013-07-31 05:55:00,48.2,45.4,30.15,N/A,-32768,0.0,0.0,90,0.00,,,0.00,Wunderground v.1.12,2013-07-31 11:55:00,
2013-07-31 06:00:00,48.0,45.2,30.16,N/A,-32768,0.0,0.0,90,0.00,,,0.00,Wunderground v.1.12,2013-07-31 12:00:00,
2013-07-31 06:05:00,47.9,45.1,30.16,N/A,-32768,0.0,0.0,90,0.00,,,0.00,Wunderground v.1.12,2013-07-31 12:05:00,
2013-07-31 06:10:00,47.6,44.5,30.16,N/A,-32768,0.0,0.0,89,0.00,,,0.00,Wunderground v.1.12,2013-07-31 12:10:00,
2013-07-31 06:15:00,47.6,44.8,30.16,N/A,-32768,0.0,0.0,90,0.00,,,0.00,Wunderground v.1.12,2013-07-31 12:15:00,
2013-07-31 06:25:00,47.5,45.0,30.16,N/A,-32768,0.0,0.0,91,0.00,,,0.00,Wunderground v.1.12,2013-07-31 12:25:00,
2013-07-31 06:30:00,47.5,45.0,30.16,N/A,-32768,0.0,0.0,91,0.00,,,0.00,Wunderground v.1.12,2013-07-31 12:30:00,
2013-07-31 06:35:00,47.6,45.1,30.16,N/A,-32768,0.0,0.0,91,0.00,,,0.00,Wunderground v.1.12,2013-07-31 12:35:00,
2013-07-31 06:40:00,47.6,45.1,30.16,N/A,-32768,0.0,0.0,91,0.00,,,0.00,Wunderground v.1.12,2013-07-31 12:40:00,
2013-07-31 06:45:00,47.6,45.1,30.16,N/A,-32768,0.0,0.0,91,0.00,,,0.00,Wunderground v.1.12,2013-07-31 12:45:00,
2013-07-31 06:50:00,47.8,45.6,30.16,N/A,-32768,0.0,0.0,92,0.00,,,0.00,Wunderground v.1.12,2013-07-31 12:50:00,
2013-07-31 06:55:00,47.7,45.8,30.14,N/A,-737280,0.0,0.0,93,0.00,,,0.00,Wunderground v.1.12,2013-07-31 12:55:00,
2013-07-31 07:00:00,48.2,46.0,30.16,N/A,-32768,0.0,0.0,92,0.00,,,0.00,Wunderground v.1.12,2013-07-31 13:00:00,
2013-07-31 07:05:00,48.4,46.5,30.16,N/A,-32768,0.0,0.0,93,0.00,,,0.00,Wunderground v.1.12,2013-07-31 13:05:00,
2013-07-31 07:10:00,48.6,46.7,30.16,N/A,-32768,0.0,0.0,93,0.00,,,0.00,Wunderground v.1.12,2013-07-31 13:10:00,
2013-07-31 07:15:00,48.8,46.9,30.16,N/A,-32768,0.0,0.0,93,0.00,,,0.00,Wunderground v.1.12,2013-07-31 13:15:00,
2013-07-31 07:20:00,49.1,46.9,30.17,N/A,-32768,0.0,0.0,92,0.00,,,0.00,Wunderground v.1.12,2013-07-31 13:20:00,
2013-07-31 07:25:00,49.3,47.1,30.17,N/A,-32768,0.0,0.0,92,0.00,,,0.00,Wunderground v.1.12,2013-07-31 13:25:00,
2013-07-31 07:30:00,49.7,47.5,30.16,N/A,-32768,0.0,0.0,92,0.00,,,0.00,Wunderground v.1.12,2013-07-31 13:30:00,
2013-07-31 07:35:00,50.1,47.9,30.16,N/A,-32768,0.0,0.0,92,0.00,,,0.00,Wunderground v.1.12,2013-07-31 13:35:00,
2013-07-31 07:40:00,50.5,48.3,30.16,N/A,-32768,0.0,0.0,92,0.00,,,0.00,Wunderground v.1.12,2013-07-31 13:40:00,
2013-07-31 07:45:00,50.8,48.3,30.16,N/A,-32768,0.0,0.0,91,0.00,,,0.00,Wunderground v.1.12,2013-07-31 13:45:00,
2013-07-31 07:50:00,51.1,48.6,30.17,N/A,-32768,0.0,0.0,91,0.00,,,0.00,Wunderground v.1.12,2013-07-31 13:50:00,
2013-07-31 07:55:00,50.8,48.3,30.14,N/A,-737280,0.0,0.0,91,0.00,,,0.00,Wunderground v.1.12,2013-07-31 13:55:00,
2013-07-31 08:00:00,51.7,49.2,30.17,N/A,-32768,0.0,0.0,91,0.00,,,0.00,Wunderground v.1.12,2013-07-31 14:00:00,
2013-07-31 08:05:00,52.1,49.3,30.16,N/A,-32768,0.0,0.0,90,0.00,,,0.00,Wunderground v.1.12,2013-07-31 14:05:00,
2013-07-31 08:10:00,52.3,50.0,30.17,N/A,-32768,0.0,0.0,92,0.00,,,0.00,Wunderground v.1.12,2013-07-31 14:10:00,
2013-07-31 08:15:00,52.8,50.8,30.17,N/A,-32768,0.0,0.0,93,0.00,,,0.00,Wunderground v.1.12,2013-07-31 14:15:00,
2013-07-31 08:20:00,53.2,51.5,30.17,N/A,-32768,0.0,0.0,94,0.00,,,0.00,Wunderground v.1.12,2013-07-31 14:20:00,
2013-07-31 08:25:00,53.6,51.6,30.17,N/A,-32768,0.0,0.0,93,0.00,,,0.00,Wunderground v.1.12,2013-07-31 14:25:00,
2013-07-31 08:30:00,52.8,50.5,30.14,N/A,-737280,0.0,0.0,92,0.00,,,0.00,Wunderground v.1.12,2013-07-31 14:30:00,
2013-07-31 08:35:00,54.3,51.7,30.17,N/A,-32768,0.0,0.0,91,0.00,,,0.00,Wunderground v.1.12,2013-07-31 14:35:00,
2013-07-31 08:40:00,54.6,51.4,30.17,N/A,-32768,0.0,0.0,89,0.00,,,0.00,Wunderground v.1.12,2013-07-31 14:40:00,
2013-07-31 08:45:00,54.9,51.7,30.16,N/A,-32768,0.0,0.0,89,0.00,,,0.00,Wunderground v.1.12,2013-07-31 14:45:00,
2013-07-31 08:50:00,55.3,52.1,30.16,N/A,-32768,0.0,0.0,89,0.00,,,0.00,Wunderground v.1.12,2013-07-31 14:50:00,
2013-07-31 08:55:00,55.9,52.1,30.16,N/A,-32768,0.0,0.0,87,0.00,,,0.00,Wunderground v.1.12,2013-07-31 14:55:00,
2013-07-31 09:00:00,56.3,52.2,30.16,N/A,-32768,0.0,0.0,86,0.00,,,0.00,Wunderground v.1.12,2013-07-31 15:00:00,
2013-07-31 09:05:00,55.0,50.9,30.14,N/A,-737280,0.0,0.0,86,0.00,,,0.00,Wunderground v.1.12,2013-07-31 15:05:00,
2013-07-31 09:10:00,57.2,52.4,30.16,N/A,-32768,0.0,0.0,84,0.00,,,0.00,Wunderground v.1.12,2013-07-31 15:10:00,
2013-07-31 09:15:00,57.7,52.6,30.16,N/A,-32768,0.0,0.0,83,0.00,,,0.00,Wunderground v.1.12,2013-07-31 15:15:00,
2013-07-31 09:20:00,58.2,52.7,30.16,N/A,-32768,0.0,0.0,82,0.00,,,0.00,Wunderground v.1.12,2013-07-31 15:20:00,
2013-07-31 09:25:00,58.8,53.3,30.16,N/A,-32768,0.0,0.0,82,0.00,,,0.00,Wunderground v.1.12,2013-07-31 15:25:00,
2013-07-31 09:30:00,57.7,50.9,30.13,N/A,-737280,0.0,0.0,78,0.00,,,0.00,Wunderground v.1.12,2013-07-31 15:30:00,
2013-07-31 09:35:00,60.2,53.3,30.16,N/A,-32768,0.0,0.0,78,0.00,,,0.00,Wunderground v.1.12,2013-07-31 15:35:00,
2013-07-31 09:40:00,61.0,53.7,30.16,N/A,-32768,0.0,0.0,77,0.00,,,0.00,Wunderground v.1.12,2013-07-31 15:40:00,
2013-07-31 09:45:00,62.1,54.1,30.16,N/A,-32768,0.0,0.0,75,0.00,,,0.00,Wunderground v.1.12,2013-07-31 15:45:00,
2013-07-31 09:50:00,63.3,54.9,30.16,N/A,-32768,0.0,0.0,74,0.00,,,0.00,Wunderground v.1.12,2013-07-31 15:50:00,
2013-07-31 09:55:00,65.0,55.8,30.16,N/A,-32768,0.0,0.0,72,0.00,,,0.00,Wunderground v.1.12,2013-07-31 15:55:00,
2013-07-31 10:00:00,66.6,56.1,30.16,N/A,-32768,0.0,0.0,69,0.00,,,0.00,Wunderground v.1.12,2013-07-31 16:00:00,
2013-07-31 10:05:00,62.4,52.1,30.13,N/A,-737280,0.0,0.0,69,0.00,,,0.00,Wunderground v.1.12,2013-07-31 16:05:00,
2013-07-31 10:10:00,69.3,57.0,30.16,N/A,-32768,0.0,0.0,65,0.00,,,0.00,Wunderground v.1.12,2013-07-31 16:10:00,
2013-07-31 10:15:00,70.4,57.6,30.15,N/A,-32768,0.0,0.0,64,0.00,,,0.00,Wunderground v.1.12,2013-07-31 16:15:00,
2013-07-31 10:20:00,71.3,57.6,30.15,N/A,-32768,0.0,0.0,62,0.00,,,0.00,Wunderground v.1.12,2013-07-31 16:20:00,
2013-07-31 10:25:00,72.4,58.6,30.15,N/A,-32768,0.0,0.0,62,0.00,,,0.00,Wunderground v.1.12,2013-07-31 16:25:00,
2013-07-31 10:30:00,73.3,58.6,30.14,N/A,-32768,0.0,0.0,60,0.00,,,0.00,Wunderground v.1.12,2013-07-31 16:30:00,
2013-07-31 10:35:00,70.2,55.7,30.12,N/A,-737280,0.0,0.0,60,0.00,,,0.00,Wunderground v.1.12,2013-07-31 16:35:00,
2013-07-31 10:40:00,74.9,59.1,30.14,N/A,-32768,0.0,0.0,58,0.00,,,0.00,Wunderground v.1.12,2013-07-31 16:40:00,
2013-07-31 10:45:00,75.6,59.8,30.14,N/A,-32768,0.0,0.0,58,0.00,,,0.00,Wunderground v.1.12,2013-07-31 16:45:00,
2013-07-31 10:50:00,76.4,59.0,30.14,N/A,-32768,0.0,0.0,55,0.00,,,0.00,Wunderground v.1.12,2013-07-31 16:50:00,
2013-07-31 10:55:00,77.1,59.2,30.14,N/A,-32768,0.0,0.0,54,0.00,,,0.00,Wunderground v.1.12,2013-07-31 16:55:00,
2013-07-31 11:00:00,75.6,57.8,30.11,N/A,-737280,0.0,5.0,54,0.00,,,0.00,Wunderground v.1.12,2013-07-31 17:00:00,
2013-07-31 11:05:00,78.6,60.6,30.13,N/A,-32768,0.0,0.0,54,0.00,,,0.00,Wunderground v.1.12,2013-07-31 17:05:00,
2013-07-31 11:10:00,75.6,57.8,30.11,N/A,-737280,0.0,5.0,54,0.00,,,0.00,Wunderground v.1.12,2013-07-31 17:10:00,
2013-07-31 11:15:00,79.5,59.2,30.13,N/A,-32768,0.0,0.0,50,0.00,,,0.00,Wunderground v.1.12,2013-07-31 17:15:00,
2013-07-31 11:20:00,79.4,60.8,30.13,N/A,-32768,0.0,0.0,53,0.00,,,0.00,Wunderground v.1.12,2013-07-31 17:20:00,
2013-07-31 11:25:00,80.0,59.1,30.13,N/A,-32768,0.0,0.0,49,0.00,,,0.00,Wunderground v.1.12,2013-07-31 17:25:00,
2013-07-31 11:30:00,80.3,58.8,30.13,N/A,-32768,0.0,0.0,48,0.00,,,0.00,Wunderground v.1.12,2013-07-31 17:30:00,
2013-07-31 11:35:00,80.5,59.6,30.12,N/A,-32768,0.0,0.0,49,0.00,,,0.00,Wunderground v.1.12,2013-07-31 17:35:00,
2013-07-31 11:40:00,81.0,60.6,30.12,N/A,-32768,0.0,0.0,50,0.00,,,0.00,Wunderground v.1.12,2013-07-31 17:40:00,
2013-07-31 11:45:00,81.5,59.9,30.12,N/A,-32768,0.0,0.0,48,0.00,,,0.00,Wunderground v.1.12,2013-07-31 17:45:00,
2013-07-31 11:50:00,81.9,60.9,30.12,N/A,-32768,0.0,0.0,49,0.00,,,0.00,Wunderground v.1.12,2013-07-31 17:50:00,
2013-07-31 11:55:00,81.6,60.0,30.12,N/A,-32768,0.0,0.0,48,0.00,,,0.00,Wunderground v.1.12,2013-07-31 17:55:00,
2013-07-31 12:00:00,81.9,59.7,30.12,N/A,-32768,0.0,0.0,47,0.00,,,0.00,Wunderground v.1.12,2013-07-31 18:00:00,
2013-07-31 12:05:00,82.2,61.1,30.12,N/A,-32768,0.0,0.0,49,0.00,,,0.00,Wunderground v.1.12,2013-07-31 18:05:00,
2013-07-31 12:10:00,81.2,59.1,30.09,N/A,-737280,0.0,6.0,47,0.00,,,0.00,Wunderground v.1.12,2013-07-31 18:10:00,
2013-07-31 12:15:00,83.3,62.7,30.11,N/A,-32768,0.0,0.0,50,0.00,,,0.00,Wunderground v.1.12,2013-07-31 18:15:00,
2013-07-31 12:20:00,83.7,61.9,30.11,N/A,-32768,0.0,0.0,48,0.00,,,0.00,Wunderground v.1.12,2013-07-31 18:20:00,
2013-07-31 12:25:00,84.0,62.2,30.11,N/A,-32768,0.0,0.0,48,0.00,,,0.00,Wunderground v.1.12,2013-07-31 18:25:00,
2013-07-31 12:30:00,84.1,60.5,30.10,N/A,-32768,0.0,0.0,45,0.00,,,0.00,Wunderground v.1.12,2013-07-31 18:30:00,
2013-07-31 12:35:00,84.0,60.4,30.10,N/A,-32768,0.0,0.0,45,0.00,,,0.00,Wunderground v.1.12,2013-07-31 18:35:00,
2013-07-31 12:40:00,83.5,60.5,30.10,N/A,-32768,0.0,0.0,46,0.00,,,0.00,Wunderground v.1.12,2013-07-31 18:40:00,
2013-07-31 12:45:00,84.1,57.9,30.06,N/A,-737280,0.0,4.0,41,0.00,,,0.00,Wunderground v.1.12,2013-07-31 18:45:00,
2013-07-31 12:50:00,84.4,60.1,30.10,N/A,-32768,0.0,0.0,44,0.00,,,0.00,Wunderground v.1.12,2013-07-31 18:50:00,
2013-07-31 12:55:00,84.7,59.1,30.09,N/A,-32768,1.0,1.0,42,0.00,,,0.00,Wunderground v.1.12,2013-07-31 18:55:00,
2013-07-31 13:00:00,84.5,58.2,30.09,N/A,-32768,0.0,0.0,41,0.00,,,0.00,Wunderground v.1.12,2013-07-31 19:00:00,
2013-07-31 13:05:00,84.3,59.4,30.09,N/A,-32768,0.0,0.0,43,0.00,,,0.00,Wunderground v.1.12,2013-07-31 19:05:00,
2013-07-31 13:10:00,84.5,58.9,30.09,N/A,-32768,0.0,0.0,42,0.00,,,0.00,Wunderground v.1.12,2013-07-31 19:10:00,
2013-07-31 13:15:00,84.8,57.8,30.05,N/A,-737280,0.0,6.0,40,0.00,,,0.00,Wunderground v.1.12,2013-07-31 19:15:00,
2013-07-31 13:20:00,84.8,59.2,30.08,N/A,-32768,0.0,0.0,42,0.00,,,0.00,Wunderground v.1.12,2013-07-31 19:20:00,
2013-07-31 13:25:00,85.3,59.6,30.08,N/A,-32768,0.0,0.0,42,0.00,,,0.00,Wunderground v.1.12,2013-07-31 19:25:00,
2013-07-31 13:30:00,85.9,58.8,30.08,N/A,-32768,0.0,0.0,40,0.00,,,0.00,Wunderground v.1.12,2013-07-31 19:30:00,
2013-07-31 13:35:00,84.8,57.8,30.05,N/A,-737280,0.0,6.0,40,0.00,,,0.00,Wunderground v.1.12,2013-07-31 19:35:00,
2013-07-31 13:40:00,84.8,57.8,30.05,N/A,-737280,0.0,6.0,40,0.00,,,0.00,Wunderground v.1.12,2013-07-31 19:40:00,
2013-07-31 13:45:00,86.2,56.9,30.07,N/A,-32768,0.0,0.0,37,0.00,,,0.00,Wunderground v.1.12,2013-07-31 19:45:00,
2013-07-31 13:50:00,85.7,57.2,30.07,N/A,-32768,0.0,0.0,38,0.00,,,0.00,Wunderground v.1.12,2013-07-31 19:50:00,
2013-07-31 13:55:00,85.3,56.8,30.07,N/A,-32768,0.0,0.0,38,0.00,,,0.00,Wunderground v.1.12,2013-07-31 19:55:00,
2013-07-31 14:00:00,86.1,56.8,30.07,N/A,-32768,3.0,3.0,37,0.00,,,0.00,Wunderground v.1.12,2013-07-31 20:00:00,
2013-07-31 14:05:00,86.0,56.7,30.07,N/A,-32768,0.0,0.0,37,0.00,,,0.00,Wunderground v.1.12,2013-07-31 20:05:00,
2013-07-31 14:10:00,86.2,55.3,30.07,N/A,-32768,0.0,0.0,35,0.00,,,0.00,Wunderground v.1.12,2013-07-31 20:10:00,
2013-07-31 14:15:00,86.4,57.8,30.06,N/A,-32768,0.0,0.0,38,0.00,,,0.00,Wunderground v.1.12,2013-07-31 20:15:00,
2013-07-31 14:20:00,86.3,53.0,30.03,N/A,-737280,1.0,9.0,32,0.00,,,0.00,Wunderground v.1.12,2013-07-31 20:20:00,
2013-07-31 14:25:00,86.4,53.9,30.06,N/A,-32768,0.0,0.0,33,0.00,,,0.00,Wunderground v.1.12,2013-07-31 20:25:00,
2013-07-31 14:30:00,86.0,53.5,30.06,N/A,-32768,0.0,0.0,33,0.00,,,0.00,Wunderground v.1.12,2013-07-31 20:30:00,
2013-07-31 14:35:00,85.7,54.9,30.05,N/A,-32768,0.0,0.0,35,0.00,,,0.00,Wunderground v.1.12,2013-07-31 20:35:00,
2013-07-31 14:40:00,85.7,55.7,30.05,N/A,-32768,0.0,0.0,36,0.00,,,0.00,Wunderground v.1.12,2013-07-31 20:40:00,
2013-07-31 14:45:00,85.7,54.1,30.01,N/A,-737280,0.0,5.0,34,0.00,,,0.00,Wunderground v.1.12,2013-07-31 20:45:00,
2013-07-31 14:50:00,85.9,55.8,30.05,N/A,-32768,0.0,0.0,36,0.00,,,0.00,Wunderground v.1.12,2013-07-31 20:50:00,
2013-07-31 14:55:00,85.7,53.3,30.04,N/A,-32768,0.0,0.0,33,0.00,,,0.00,Wunderground v.1.12,2013-07-31 20:55:00,
2013-07-31 15:00:00,85.4,53.8,30.04,N/A,-32768,0.0,0.0,34,0.00,,,0.00,Wunderground v.1.12,2013-07-31 21:00:00,
2013-07-31 15:05:00,85.7,54.1,30.01,N/A,-737280,0.0,5.0,34,0.00,,,0.00,Wunderground v.1.12,2013-07-31 21:05:00,
2013-07-31 15:10:00,85.7,54.1,30.01,N/A,-737280,0.0,5.0,34,0.00,,,0.00,Wunderground v.1.12,2013-07-31 21:10:00,
2013-07-31 15:15:00,84.9,55.0,30.03,N/A,-32768,0.0,0.0,36,0.00,,,0.00,Wunderground v.1.12,2013-07-31 21:15:00,
2013-07-31 15:20:00,84.8,55.6,30.03,N/A,-32768,0.0,0.0,37,0.00,,,0.00,Wunderground v.1.12,2013-07-31 21:20:00,
2013-07-31 15:30:00,84.0,53.4,30.03,N/A,-32768,0.0,0.0,35,0.00,,,0.00,Wunderground v.1.12,2013-07-31 21:30:00,
2013-07-31 15:35:00,83.7,53.9,30.03,N/A,-32768,0.0,0.0,36,0.00,,,0.00,Wunderground v.1.12,2013-07-31 21:35:00,
2013-07-31 15:40:00,83.6,55.3,30.03,N/A,-32768,0.0,0.0,38,0.00,,,0.00,Wunderground v.1.12,2013-07-31 21:40:00,
2013-07-31 15:45:00,83.4,55.1,30.02,N/A,-32768,4.0,4.0,38,0.00,,,0.00,Wunderground v.1.12,2013-07-31 21:45:00,
2013-07-31 15:50:00,83.4,53.6,30.02,N/A,-32768,0.0,0.0,36,0.00,,,0.00,Wunderground v.1.12,2013-07-31 21:50:00,
2013-07-31 15:55:00,83.5,53.0,29.99,N/A,-737280,0.0,6.0,35,0.00,,,0.00,Wunderground v.1.12,2013-07-31 21:55:00,
2013-07-31 16:00:00,83.1,52.6,30.02,N/A,-32768,0.0,0.0,35,0.00,,,0.00,Wunderground v.1.12,2013-07-31 22:00:00,
2013-07-31 16:05:00,83.0,53.3,30.02,N/A,-32768,0.0,0.0,36,0.00,,,0.00,Wunderground v.1.12,2013-07-31 22:05:00,
2013-07-31 16:10:00,83.0,52.5,30.02,N/A,-32768,0.0,0.0,35,0.00,,,0.00,Wunderground v.1.12,2013-07-31 22:10:00,
2013-07-31 16:15:00,82.8,51.6,30.01,N/A,-32768,0.0,0.0,34,0.00,,,0.00,Wunderground v.1.12,2013-07-31 22:15:00,
2013-07-31 16:20:00,82.8,52.3,30.01,N/A,-32768,0.0,0.0,35,0.00,,,0.00,Wunderground v.1.12,2013-07-31 22:20:00,
2013-07-31 16:25:00,82.8,52.3,30.01,N/A,-32768,0.0,0.0,35,0.00,,,0.00,Wunderground v.1.12,2013-07-31 22:25:00,
2013-07-31 16:30:00,82.7,51.5,30.01,N/A,-32768,0.0,0.0,34,0.00,,,0.00,Wunderground v.1.12,2013-07-31 22:30:00,
2013-07-31 16:35:00,82.6,52.9,30.01,N/A,-32768,0.0,0.0,36,0.00,,,0.00,Wunderground v.1.12,2013-07-31 22:35:00,
2013-07-31 16:40:00,82.7,54.5,30.00,N/A,-32768,0.0,0.0,38,0.00,,,0.00,Wunderground v.1.12,2013-07-31 22:40:00,
2013-07-31 16:45:00,83.0,53.3,30.00,N/A,-32768,0.0,0.0,36,0.00,,,0.00,Wunderground v.1.12,2013-07-31 22:45:00,
2013-07-31 16:50:00,82.8,51.6,30.00,N/A,-32768,0.0,0.0,34,0.00,,,0.00,Wunderground v.1.12,2013-07-31 22:50:00,
2013-07-31 16:55:00,82.7,51.5,30.00,N/A,-32768,0.0,0.0,34,0.00,,,0.00,Wunderground v.1.12,2013-07-31 22:55:00,
2013-07-31 17:00:00,82.7,52.3,29.97,N/A,-737280,0.0,3.0,35,0.00,,,0.00,Wunderground v.1.12,2013-07-31 23:00:00,
2013-07-31 17:05:00,82.4,52.8,29.99,N/A,-32768,0.0,0.0,36,0.00,,,0.00,Wunderground v.1.12,2013-07-31 23:05:00,
2013-07-31 17:10:00,82.7,54.5,29.99,N/A,-32768,0.0,0.0,38,0.00,,,0.00,Wunderground v.1.12,2013-07-31 23:10:00,
2013-07-31 17:15:00,83.2,52.7,29.99,N/A,-32768,0.0,0.0,35,0.00,,,0.00,Wunderground v.1.12,2013-07-31 23:15:00,
2013-07-31 17:20:00,83.0,53.3,29.96,N/A,-737280,0.0,2.0,36,0.00,,,0.00,Wunderground v.1.12,2013-07-31 23:20:00,
2013-07-31 17:25:00,83.5,53.7,29.99,N/A,-32768,0.0,0.0,36,0.00,,,0.00,Wunderground v.1.12,2013-07-31 23:25:00,
2013-07-31 17:30:00,83.0,53.3,29.96,N/A,-737280,0.0,2.0,36,0.00,,,0.00,Wunderground v.1.12,2013-07-31 23:30:00,
2013-07-31 17:35:00,84.0,55.7,29.99,N/A,-32768,0.0,0.0,38,0.00,,,0.00,Wunderground v.1.12,2013-07-31 23:35:00,
2013-07-31 17:40:00,84.0,55.7,29.98,N/A,-32768,0.0,0.0,38,0.00,,,0.00,Wunderground v.1.12,2013-07-31 23:40:00,
2013-07-31 17:45:00,83.8,54.7,29.98,N/A,-32768,0.0,0.0,37,0.00,,,0.00,Wunderground v.1.12,2013-07-31 23:45:00,
2013-07-31 17:50:00,83.6,55.3,29.98,N/A,-32768,0.0,0.0,38,0.00,,,0.00,Wunderground v.1.12,2013-07-31 23:50:00,
2013-07-31 17:55:00,83.4,52.9,29.98,N/A,-32768,0.0,0.0,35,0.00,,,0.00,Wunderground v.1.12,2013-07-31 23:55:00,
2013-07-31 18:00:00,83.3,52.8,29.98,N/A,-32768,0.0,0.0,35,0.00,,,0.00,Wunderground v.1.12,2013-08-01 00:00:00,
2013-07-31 18:05:00,83.1,53.4,29.98,N/A,-32768,0.0,0.0,36,0.00,,,0.00,Wunderground v.1.12,2013-08-01 00:05:00,
2013-07-31 18:10:00,82.9,54.7,29.97,N/A,-32768,0.0,0.0,38,0.00,,,0.00,Wunderground v.1.12,2013-08-01 00:10:00,
2013-07-31 18:15:00,82.9,54.7,29.98,N/A,-32768,0.0,0.0,38,0.00,,,0.00,Wunderground v.1.12,2013-08-01 00:15:00,
2013-07-31 18:20:00,82.9,54.7,29.97,N/A,-32768,0.0,0.0,38,0.00,,,0.00,Wunderground v.1.12,2013-08-01 00:20:00,
2013-07-31 18:25:00,82.8,52.3,29.97,N/A,-32768,0.0,0.0,35,0.00,,,0.00,Wunderground v.1.12,2013-08-01 00:25:00,
2013-07-31 18:30:00,82.7,53.0,29.97,N/A,-32768,0.0,0.0,36,0.00,,,0.00,Wunderground v.1.12,2013-08-01 00:30:00,
2013-07-31 18:35:00,82.9,53.2,29.94,N/A,-737280,0.0,1.0,36,0.00,,,0.00,Wunderground v.1.12,2013-08-01 00:35:00,
2013-07-31 18:40:00,82.4,52.8,29.97,N/A,-32768,0.0,0.0,36,0.00,,,0.00,Wunderground v.1.12,2013-08-01 00:40:00,
2013-07-31 18:45:00,82.3,51.9,29.97,N/A,-32768,0.0,0.0,35,0.00,,,0.00,Wunderground v.1.12,2013-08-01 00:45:00,
2013-07-31 18:50:00,82.1,50.9,29.96,N/A,-32768,0.0,0.0,34,0.00,,,0.00,Wunderground v.1.12,2013-08-01 00:50:00,
2013-07-31 18:55:00,81.8,49.9,29.96,N/A,-32768,0.0,0.0,33,0.00,,,0.00,Wunderground v.1.12,2013-08-01 00:55:00,
2013-07-31 19:00:00,81.7,52.1,29.96,N/A,-32768,0.0,0.0,36,0.00,,,0.00,Wunderground v.1.12,2013-08-01 01:00:00,
2013-07-31 19:05:00,82.2,52.6,29.93,N/A,-737280,0.0,0.0,36,0.00,,,0.00,Wunderground v.1.12,2013-08-01 01:05:00,
2013-07-31 19:10:00,81.3,52.5,29.96,N/A,-32768,0.0,0.0,37,0.00,,,0.00,Wunderground v.1.12,2013-08-01 01:10:00,
2013-07-31 19:15:00,81.0,53.0,29.96,N/A,-32768,0.0,0.0,38,0.00,,,0.00,Wunderground v.1.12,2013-08-01 01:15:00,
2013-07-31 19:20:00,80.9,56.3,29.96,N/A,-32768,0.0,0.0,43,0.00,,,0.00,Wunderground v.1.12,2013-08-01 01:20:00,
2013-07-31 19:25:00,80.5,51.8,29.95,N/A,-32768,0.0,0.0,37,0.00,,,0.00,Wunderground v.1.12,2013-08-01 01:25:00,
2013-07-31 19:30:00,80.2,53.7,29.96,N/A,-32768,0.0,0.0,40,0.00,,,0.00,Wunderground v.1.12,2013-08-01 01:30:00,
2013-07-31 19:35:00,79.9,57.3,29.95,N/A,-32768,0.0,0.0,46,0.00,,,0.00,Wunderground v.1.12,2013-08-01 01:35:00,
2013-07-31 19:40:00,79.6,57.6,29.95,N/A,-32768,0.0,0.0,47,0.00,,,0.00,Wunderground v.1.12,2013-08-01 01:40:00,
2013-07-31 19:45:00,79.3,58.5,29.95,N/A,-32768,0.0,0.0,49,0.00,,,0.00,Wunderground v.1.12,2013-08-01 01:45:00,
2013-07-31 19:50:00,78.9,59.8,29.95,N/A,-32768,0.0,0.0,52,0.00,,,0.00,Wunderground v.1.12,2013-08-01 01:50:00,
2013-07-31 19:55:00,78.5,61.0,29.95,N/A,-32768,0.0,0.0,55,0.00,,,0.00,Wunderground v.1.12,2013-08-01 01:55:00,
2013-07-31 20:00:00,78.0,61.0,29.95,N/A,-32768,0.0,0.0,56,0.00,,,0.00,Wunderground v.1.12,2013-08-01 02:00:00,
2013-07-31 20:05:00,77.5,60.6,29.95,N/A,-32768,0.0,0.0,56,0.00,,,0.00,Wunderground v.1.12,2013-08-01 02:05:00,
2013-07-31 20:10:00,79.3,62.2,29.93,N/A,-737280,0.0,0.0,56,0.00,,,0.00,Wunderground v.1.12,2013-08-01 02:10:00,
2013-07-31 20:15:00,76.8,59.9,29.95,N/A,-32768,0.0,0.0,56,0.00,,,0.00,Wunderground v.1.12,2013-08-01 02:15:00,
2013-07-31 20:20:00,76.4,59.0,29.95,N/A,-32768,0.0,0.0,55,0.00,,,0.00,Wunderground v.1.12,2013-08-01 02:20:00,
2013-07-31 20:25:00,76.1,58.8,29.96,N/A,-32768,0.0,0.0,55,0.00,,,0.00,Wunderground v.1.12,2013-08-01 02:25:00,
2013-07-31 20:30:00,75.8,59.0,29.95,N/A,-32768,0.0,0.0,56,0.00,,,0.00,Wunderground v.1.12,2013-08-01 02:30:00,
2013-07-31 20:35:00,75.5,59.2,29.96,N/A,-32768,0.0,0.0,57,0.00,,,0.00,Wunderground v.1.12,2013-08-01 02:35:00,
2013-07-31 20:40:00,76.8,59.9,29.93,N/A,-737280,0.0,0.0,56,0.00,,,0.00,Wunderground v.1.12,2013-08-01 02:40:00,
2013-07-31 20:45:00,74.7,58.9,29.95,N/A,-32768,0.0,0.0,58,0.00,,,0.00,Wunderground v.1.12,2013-08-01 02:45:00,
2013-07-31 20:50:00,74.3,58.6,29.95,N/A,-32768,0.0,0.0,58,0.00,,,0.00,Wunderground v.1.12,2013-08-01 02:50:00,
2013-07-31 20:55:00,74.0,57.8,29.95,N/A,-32768,0.0,0.0,57,0.00,,,0.00,Wunderground v.1.12,2013-08-01 02:55:00,
2013-07-31 21:00:00,73.7,57.5,29.95,N/A,-32768,0.0,0.0,57,0.00,,,0.00,Wunderground v.1.12,2013-08-01 03:00:00,
2013-07-31 21:05:00,73.4,57.2,29.95,N/A,-32768,0.0,0.0,57,0.00,,,0.00,Wunderground v.1.12,2013-08-01 03:05:00,
2013-07-31 21:10:00,73.1,57.9,29.95,N/A,-32768,0.0,0.0,59,0.00,,,0.00,Wunderground v.1.12,2013-08-01 03:10:00,
2013-07-31 21:20:00,72.5,56.9,29.95,N/A,-32768,0.0,0.0,58,0.00,,,0.00,Wunderground v.1.12,2013-08-01 03:20:00,
2013-07-31 21:25:00,72.2,56.6,29.95,N/A,-32768,0.0,0.0,58,0.00,,,0.00,Wunderground v.1.12,2013-08-01 03:25:00,
2013-07-31 21:30:00,71.9,56.3,29.96,N/A,-32768,0.0,0.0,58,0.00,,,0.00,Wunderground v.1.12,2013-08-01 03:30:00,
2013-07-31 21:35:00,71.7,56.1,29.96,N/A,-32768,0.0,0.0,58,0.00,,,0.00,Wunderground v.1.12,2013-08-01 03:35:00,
2013-07-31 21:40:00,71.6,54.6,29.97,N/A,-32768,3.0,3.0,55,0.00,,,0.00,Wunderground v.1.12,2013-08-01 03:40:00,
2013-07-31 21:45:00,71.7,50.4,29.96,N/A,-737280,1.0,9.0,47,0.00,,,0.00,Wunderground v.1.12,2013-08-01 03:45:00,
2013-07-31 21:50:00,71.6,53.0,29.98,N/A,-32768,1.0,1.0,52,0.00,,,0.00,Wunderground v.1.12,2013-08-01 03:50:00,
2013-07-31 21:55:00,71.8,52.7,29.99,N/A,-32768,0.0,0.0,51,0.00,,,0.00,Wunderground v.1.12,2013-08-01 03:55:00,
2013-07-31 22:00:00,72.0,50.7,29.99,N/A,-32768,0.0,0.0,47,0.00,,,0.00,Wunderground v.1.12,2013-08-01 04:00:00,
2013-07-31 22:05:00,72.1,51.9,29.99,N/A,-32768,0.0,0.0,49,0.00,,,0.00,Wunderground v.1.12,2013-08-01 04:05:00,
2013-07-31 22:10:00,72.0,51.2,29.99,N/A,-32768,0.0,0.0,48,0.00,,,0.00,Wunderground v.1.12,2013-08-01 04:10:00,
2013-07-31 22:15:00,72.1,50.8,29.99,N/A,-32768,0.0,0.0,47,0.00,,,0.00,Wunderground v.1.12,2013-08-01 04:15:00,
2013-07-31 22:20:00,72.5,51.7,29.97,N/A,-737280,4.0,19.0,48,0.00,,,0.00,Wunderground v.1.12,2013-08-01 04:20:00,
2013-07-31 22:25:00,73.2,51.2,30.00,N/A,-32768,7.0,7.0,46,0.00,,,0.00,Wunderground v.1.12,2013-08-01 04:25:00,
2013-07-31 22:30:00,73.0,52.1,30.00,N/A,-32768,0.0,0.0,48,0.00,,,0.00,Wunderground v.1.12,2013-08-01 04:30:00,
2013-07-31 22:35:00,72.8,51.4,30.00,N/A,-32768,0.0,0.0,47,0.00,,,0.00,Wunderground v.1.12,2013-08-01 04:35:00,
2013-07-31 22:40:00,72.5,51.1,29.99,N/A,-32768,0.0,0.0,47,0.00,,,0.00,Wunderground v.1.12,2013-08-01 04:40:00,
2013-07-31 22:45:00,72.5,51.7,30.00,N/A,-32768,0.0,0.0,48,0.00,,,0.00,Wunderground v.1.12,2013-08-01 04:45:00,
2013-07-31 22:50:00,72.5,52.8,29.97,N/A,-737280,0.0,0.0,50,0.00,,,0.00,Wunderground v.1.12,2013-08-01 04:50:00,
2013-07-31 22:55:00,72.3,52.1,30.00,N/A,-32768,0.0,0.0,49,0.00,,,0.00,Wunderground v.1.12,2013-08-01 04:55:00,
2013-07-31 23:00:00,72.2,52.5,29.99,N/A,-32768,0.0,0.0,50,0.00,,,0.00,Wunderground v.1.12,2013-08-01 05:00:00,
2013-07-31 23:05:00,71.8,52.7,29.99,N/A,-32768,0.0,0.0,51,0.00,,,0.00,Wunderground v.1.12,2013-08-01 05:05:00,
2013-07-31 23:10:00,71.8,51.6,29.98,N/A,-32768,0.0,0.0,49,0.00,,,0.00,Wunderground v.1.12,2013-08-01 05:10:00,
2013-07-31 23:15:00,71.9,51.7,29.98,N/A,-32768,0.0,0.0,49,0.00,,,0.00,Wunderground v.1.12,2013-08-01 05:15:00,
2013-07-31 23:20:00,71.9,52.8,29.98,N/A,-32768,0.0,0.0,51,0.00,,,0.00,Wunderground v.1.12,2013-08-01 05:20:00,
2013-07-31 23:25:00,71.7,52.1,29.98,N/A,-32768,0.0,0.0,50,0.00,,,0.00,Wunderground v.1.12,2013-08-01 05:25:00,
2013-07-31 23:30:00,71.6,52.0,29.98,N/A,-32768,0.0,0.0,50,0.00,,,0.00,Wunderground v.1.12,2013-08-01 05:30:00,
2013-07-31 23:35:00,71.5,52.9,29.98,N/A,-32768,0.0,0.0,52,0.00,,,0.00,Wunderground v.1.12,2013-08-01 05:35:00,
2013-07-31 23:40:00,71.2,53.2,29.98,N/A,-32768,0.0,0.0,53,0.00,,,0.00,Wunderground v.1.12,2013-08-01 05:40:00,
2013-07-31 23:45:00,71.0,55.9,29.96,N/A,-737280,0.0,3.0,59,0.00,,,0.00,Wunderground v.1.12,2013-08-01 05:45:00,
2013-07-31 23:50:00,70.8,54.3,29.98,N/A,-32768,0.0,0.0,56,0.00,,,0.00,Wunderground v.1.12,2013-08-01 05:50:00,
2013-07-31 23:55:00,70.4,55.4,29.98,N/A,-32768,0.0,0.0,59,0.00,,,0.00,Wunderground v.1.12,2013-08-01 05:55:00,